createdAt,value
2018-09-26T00:01:08.780Z,9.69
2018-09-26T00:04:17.360Z,9.67
2018-09-26T00:07:21.417Z,9.72
2018-09-26T00:10:25.422Z,9.69
2018-09-26T00:13:29.462Z,9.65
2018-09-26T00:16:33.489Z,9.66
2018-09-26T00:19:37.518Z,9.62
2018-09-26T00:22:41.548Z,9.64
2018-09-26T00:25:45.607Z,9.57
2018-09-26T00:28:49.624Z,9.65
2018-09-26T00:31:53.636Z,9.60
2018-09-26T00:34:57.685Z,9.55
2018-09-26T00:38:01.705Z,9.58
2018-09-26T00:41:05.776Z,9.53
2018-09-26T00:44:10.152Z,9.63
2018-09-26T00:47:14.186Z,9.63
2018-09-26T00:50:18.499Z,9.65
2018-09-26T00:53:22.472Z,9.63
2018-09-26T00:56:26.590Z,9.61
2018-09-26T00:59:30.603Z,9.65
2018-09-26T01:02:34.893Z,9.60
2018-09-26T01:05:38.984Z,9.57
2018-09-26T01:08:43.018Z,9.61
2018-09-26T01:11:47.262Z,9.60
2018-09-26T01:14:51.289Z,9.63
2018-09-26T01:17:55.284Z,9.67
2018-09-26T01:20:59.322Z,9.63
2018-09-26T01:24:03.319Z,9.61
2018-09-26T01:27:07.304Z,9.58
2018-09-26T01:30:11.315Z,9.59
2018-09-26T01:33:15.347Z,9.60
2018-09-26T01:36:19.402Z,9.60
2018-09-26T01:39:23.491Z,9.59
2018-09-26T01:42:27.947Z,9.53
2018-09-26T01:45:31.985Z,9.54
2018-09-26T01:48:35.971Z,9.56
2018-09-26T01:51:40.016Z,9.51
2018-09-26T01:54:44.226Z,9.46
2018-09-26T01:57:48.263Z,9.46
2018-09-26T02:00:52.309Z,9.47
2018-09-26T02:03:56.615Z,9.41
2018-09-26T02:07:00.649Z,9.44
2018-09-26T02:10:05.231Z,9.39
2018-09-26T02:13:09.372Z,9.31
2018-09-26T02:16:13.484Z,9.35
2018-09-26T02:19:17.539Z,9.34
2018-09-26T02:22:21.542Z,9.29
2018-09-26T02:25:25.599Z,9.29
2018-09-26T02:28:29.635Z,9.23
2018-09-26T02:31:33.987Z,9.20
2018-09-26T02:34:38.024Z,9.28
2018-09-26T02:37:42.270Z,9.25
2018-09-26T02:40:46.307Z,9.23
2018-09-26T02:43:50.327Z,9.25
2018-09-26T02:46:54.358Z,9.21
2018-09-26T02:49:58.412Z,9.21
2018-09-26T02:53:02.444Z,9.24
2018-09-26T02:56:06.460Z,9.21
2018-09-26T02:59:10.511Z,9.23
2018-09-26T03:02:15.063Z,9.23
2018-09-26T03:05:19.140Z,9.23
2018-09-26T03:08:23.379Z,9.24
2018-09-26T03:11:27.367Z,9.27
2018-09-26T03:14:31.370Z,9.16
2018-09-26T03:17:35.644Z,9.13
2018-09-26T03:20:40.175Z,9.19
2018-09-26T03:23:44.166Z,9.25
2018-09-26T03:26:48.235Z,9.28
2018-09-26T03:29:52.410Z,9.31
2018-09-26T03:32:56.450Z,9.35
2018-09-26T03:36:00.674Z,9.34
2018-09-26T03:39:06.314Z,9.25
2018-09-26T03:42:10.339Z,9.21
2018-09-26T03:45:14.335Z,9.23
2018-09-26T03:48:18.384Z,9.30
2018-09-26T03:51:22.432Z,9.25
2018-09-26T03:54:26.439Z,9.28
2018-09-26T03:57:30.443Z,9.24
2018-09-26T04:00:34.453Z,9.24
2018-09-26T04:03:38.458Z,9.25
2018-09-26T04:06:42.550Z,9.24
2018-09-26T04:09:46.894Z,9.20
2018-09-26T04:12:51.046Z,9.25
2018-09-26T04:15:55.824Z,9.24
2018-09-26T04:18:59.905Z,9.19
2018-09-26T04:22:04.107Z,9.21
2018-09-26T04:25:08.207Z,9.19
2018-09-26T04:28:12.182Z,9.17
2018-09-26T04:31:16.162Z,9.21
2018-09-26T04:34:20.315Z,9.18
2018-09-26T04:37:24.395Z,9.15
2018-09-26T04:40:28.416Z,9.17
2018-09-26T04:43:32.615Z,9.17
2018-09-26T04:46:36.708Z,9.24
2018-09-26T04:49:40.771Z,9.22
2018-09-26T04:52:44.810Z,9.19
2018-09-26T04:55:48.843Z,9.14
2018-09-26T04:58:52.895Z,9.10
2018-09-26T05:01:57.077Z,9.10
2018-09-26T05:05:01.519Z,9.06
2018-09-26T05:08:05.924Z,8.96
2018-09-26T05:11:09.950Z,9.00
2018-09-26T05:14:13.956Z,9.01
2018-09-26T05:17:18.014Z,9.02
2018-09-26T05:20:22.039Z,9.01
2018-09-26T05:23:26.354Z,9.02
2018-09-26T05:26:30.362Z,8.99
2018-09-26T05:29:34.670Z,9.02
2018-09-26T05:32:38.942Z,8.96
2018-09-26T05:35:43.295Z,8.94
2018-09-26T05:38:47.361Z,8.94
2018-09-26T05:41:51.462Z,8.93
2018-09-26T05:44:55.577Z,8.93
2018-09-26T05:47:59.519Z,8.87
2018-09-26T05:51:03.791Z,8.94
2018-09-26T05:54:08.198Z,8.91
2018-09-26T05:57:12.221Z,8.97
2018-09-26T06:00:16.714Z,9.02
2018-09-26T06:03:20.635Z,9.03
2018-09-26T06:06:24.568Z,9.05
2018-09-26T06:09:28.495Z,9.08
2018-09-26T06:12:32.442Z,9.09
2018-09-26T06:15:36.560Z,9.13
2018-09-26T06:18:40.882Z,9.18
2018-09-26T06:21:45.149Z,9.21
2018-09-26T06:24:49.145Z,9.22
2018-09-26T06:27:53.215Z,9.24
2018-09-26T06:30:57.149Z,9.24
2018-09-26T06:34:01.082Z,9.30
2018-09-26T06:37:05.211Z,9.36
2018-09-26T06:40:09.137Z,9.38
2018-09-26T06:43:13.067Z,9.42
2018-09-26T06:46:16.995Z,9.43
2018-09-26T06:49:20.943Z,9.45
2018-09-26T06:52:25.074Z,9.47
2018-09-26T06:55:29.019Z,9.48
2018-09-26T06:58:32.987Z,9.51
2018-09-26T07:01:37.264Z,9.56
2018-09-26T07:04:41.399Z,9.55
2018-09-26T07:07:45.351Z,9.60
2018-09-26T07:10:49.296Z,9.67
2018-09-26T07:13:53.403Z,9.73
2018-09-26T07:16:57.364Z,9.80
2018-09-26T07:20:01.279Z,9.86
2018-09-26T07:23:05.557Z,9.98
2018-09-26T07:26:09.671Z,10.10
2018-09-26T07:29:13.613Z,10.12
2018-09-26T07:32:17.765Z,10.16
2018-09-26T07:35:21.827Z,10.21
2018-09-26T07:38:25.776Z,10.33
2018-09-26T07:41:29.893Z,10.36
2018-09-26T07:44:33.822Z,10.44
2018-09-26T07:47:37.746Z,10.47
2018-09-26T07:50:41.685Z,10.55
2018-09-26T07:53:45.990Z,10.56
2018-09-26T07:56:50.035Z,10.68
2018-09-26T07:59:54.125Z,10.81
2018-09-26T08:02:58.151Z,10.87
2018-09-26T08:06:02.161Z,10.93
2018-09-26T08:09:07.433Z,10.90
2018-09-26T08:12:11.370Z,10.95
2018-09-26T08:15:15.323Z,11.03
2018-09-26T08:18:19.647Z,11.08
2018-09-26T08:21:24.099Z,11.14
2018-09-26T08:24:28.083Z,11.32
2018-09-26T08:27:32.347Z,11.32
2018-09-26T08:30:36.628Z,11.40
2018-09-26T08:33:40.603Z,11.41
2018-09-26T08:36:44.536Z,11.51
2018-09-26T08:39:48.478Z,11.52
2018-09-26T08:42:52.464Z,11.69
2018-09-26T08:45:56.409Z,11.68
2018-09-26T08:49:00.699Z,11.70
2018-09-26T08:52:04.992Z,11.79
2018-09-26T08:55:08.999Z,11.85
2018-09-26T08:58:12.934Z,11.88
2018-09-26T09:01:22.196Z,11.98
2018-09-26T09:04:26.134Z,12.09
2018-09-26T09:07:30.118Z,12.24
2018-09-26T09:10:34.097Z,12.32
2018-09-26T09:13:38.013Z,12.33
2018-09-26T09:16:41.927Z,12.38
2018-09-26T09:19:45.857Z,12.53
2018-09-26T09:22:49.785Z,12.54
2018-09-26T09:25:53.813Z,12.57
2018-09-26T09:28:57.746Z,12.64
2018-09-26T09:32:01.682Z,12.72
2018-09-26T09:35:05.602Z,12.82
2018-09-26T09:38:09.559Z,12.95
2018-09-26T09:41:13.738Z,12.95
2018-09-26T09:44:17.682Z,13.03
2018-09-26T09:47:21.803Z,13.02
2018-09-26T09:50:25.723Z,13.25
2018-09-26T09:53:29.683Z,13.18
2018-09-26T09:56:33.603Z,13.18
2018-09-26T09:59:37.614Z,13.28
2018-09-26T10:02:41.658Z,13.33
2018-09-26T10:05:45.685Z,13.27
2018-09-26T10:08:49.646Z,13.31
2018-09-26T10:11:53.830Z,13.38
2018-09-26T10:14:57.781Z,13.39
2018-09-26T10:18:01.728Z,13.56
2018-09-26T10:21:05.879Z,13.58
2018-09-26T10:24:09.798Z,13.55
2018-09-26T10:27:13.718Z,13.61
2018-09-26T10:30:17.663Z,13.61
2018-09-26T10:33:21.563Z,13.74
2018-09-26T10:36:25.689Z,13.76
2018-09-26T10:39:29.662Z,13.81
2018-09-26T10:42:33.603Z,13.93
2018-09-26T10:45:37.529Z,14.07
2018-09-26T10:48:41.487Z,14.08
2018-09-26T10:51:45.622Z,14.09
2018-09-26T10:54:49.605Z,14.08
2018-09-26T10:57:53.543Z,14.14
2018-09-26T11:00:57.478Z,14.18
2018-09-26T11:04:01.416Z,14.37
2018-09-26T11:07:05.698Z,14.38
2018-09-26T11:10:09.638Z,14.38
2018-09-26T11:13:13.779Z,14.38
2018-09-26T11:16:17.739Z,14.37
2018-09-26T11:19:21.870Z,14.39
2018-09-26T11:22:25.880Z,14.46
2018-09-26T11:25:29.946Z,14.49
2018-09-26T11:28:33.887Z,14.56
2018-09-26T11:31:37.962Z,14.64
2018-09-26T11:34:42.067Z,14.65
2018-09-26T11:37:46.123Z,14.70
2018-09-26T11:40:50.047Z,14.70
2018-09-26T11:43:54.225Z,14.85
2018-09-26T11:46:58.253Z,14.86
2018-09-26T11:50:02.432Z,14.88
2018-09-26T11:53:06.422Z,14.92
2018-09-26T11:56:10.417Z,14.92
2018-09-26T11:59:14.494Z,14.95
2018-09-26T12:02:18.526Z,14.87
2018-09-26T12:05:22.577Z,14.84
2018-09-26T12:08:26.578Z,14.82
2018-09-26T12:11:30.642Z,14.91
2018-09-26T12:14:34.557Z,14.95
2018-09-26T12:17:38.689Z,14.99
2018-09-26T12:20:42.638Z,15.07
2018-09-26T12:23:46.784Z,15.13
2018-09-26T12:26:50.720Z,15.26
2018-09-26T12:29:54.717Z,15.45
2018-09-26T12:32:58.742Z,15.42
2018-09-26T12:36:02.836Z,15.57
2018-09-26T12:39:08.375Z,15.64
2018-09-26T12:42:12.514Z,15.72
2018-09-26T12:45:16.715Z,15.69
2018-09-26T12:48:20.798Z,15.70
2018-09-26T12:51:24.941Z,15.83
2018-09-26T12:54:29.395Z,15.87
2018-09-26T12:57:33.479Z,15.97
2018-09-26T13:00:37.866Z,16.01
2018-09-26T13:03:41.931Z,16.05
2018-09-26T13:06:45.997Z,16.11
2018-09-26T13:09:49.934Z,16.04
2018-09-26T13:12:54.538Z,16.05
2018-09-26T13:15:58.612Z,15.98
2018-09-26T13:19:02.649Z,16.10
2018-09-26T13:22:06.780Z,15.98
2018-09-26T13:25:10.884Z,15.96
2018-09-26T13:28:15.184Z,16.00
2018-09-26T13:31:19.234Z,15.96
2018-09-26T13:34:23.400Z,15.93
2018-09-26T13:37:27.493Z,16.04
2018-09-26T13:40:31.466Z,15.98
2018-09-26T13:43:35.556Z,15.96
2018-09-26T13:46:39.747Z,15.97
2018-09-26T13:49:44.147Z,15.96
2018-09-26T13:52:48.132Z,15.99
2018-09-26T13:55:52.305Z,15.96
2018-09-26T13:58:56.562Z,15.96
2018-09-26T14:02:00.823Z,15.98
2018-09-26T14:05:05.301Z,16.03
2018-09-26T14:08:09.222Z,15.93
2018-09-26T14:11:13.222Z,15.97
2018-09-26T14:14:17.217Z,15.91
2018-09-26T14:17:21.359Z,15.94
2018-09-26T14:20:26.009Z,15.97
2018-09-26T14:23:30.466Z,15.96
2018-09-26T14:26:34.697Z,15.91
2018-09-26T14:29:38.684Z,15.87
2018-09-26T14:32:42.630Z,15.91
2018-09-26T14:35:46.581Z,15.91
2018-09-26T14:38:50.640Z,15.92
2018-09-26T14:41:54.675Z,15.96
2018-09-26T14:44:58.611Z,16.01
2018-09-26T14:48:02.551Z,16.02
2018-09-26T14:51:07.459Z,16.02
2018-09-26T14:54:11.415Z,16.02
2018-09-26T14:57:15.731Z,16.18
2018-09-26T15:00:19.867Z,16.00
2018-09-26T15:03:23.984Z,16.02
2018-09-26T15:06:28.508Z,15.98
2018-09-26T15:09:32.529Z,15.87
2018-09-26T15:12:36.435Z,15.93
2018-09-26T15:15:40.370Z,15.86
2018-09-26T15:18:44.323Z,15.87
2018-09-26T15:21:48.264Z,15.88
2018-09-26T15:24:52.261Z,15.85
2018-09-26T15:27:56.401Z,15.92
2018-09-26T15:31:01.119Z,15.86
2018-09-26T15:34:05.143Z,15.91
2018-09-26T15:37:09.286Z,15.93
2018-09-26T15:40:13.399Z,15.91
2018-09-26T15:43:17.887Z,15.97
2018-09-26T15:46:21.967Z,15.89
2018-09-26T15:49:26.045Z,15.84
2018-09-26T15:52:30.062Z,15.80
2018-09-26T15:55:34.209Z,15.81
2018-09-26T15:58:38.288Z,15.76
2018-09-26T16:01:42.266Z,15.80
2018-09-26T16:04:46.220Z,15.78
2018-09-26T16:07:50.146Z,15.85
2018-09-26T16:10:54.074Z,15.88
2018-09-26T16:13:58.443Z,15.91
2018-09-26T16:17:02.570Z,15.82
2018-09-26T16:20:06.714Z,15.85
2018-09-26T16:23:11.172Z,15.83
2018-09-26T16:26:15.153Z,15.81
2018-09-26T16:29:19.288Z,15.86
2018-09-26T16:32:23.566Z,15.87
2018-09-26T16:35:27.670Z,15.92
2018-09-26T16:38:31.659Z,15.95
2018-09-26T16:41:35.787Z,15.88
2018-09-26T16:44:39.738Z,15.85
2018-09-26T16:47:43.871Z,15.84
2018-09-26T16:50:47.846Z,15.81
2018-09-26T16:53:51.838Z,15.89
2018-09-26T16:56:55.947Z,15.94
2018-09-26T16:59:59.867Z,15.95
2018-09-26T17:03:04.483Z,15.91
2018-09-26T17:06:08.780Z,15.93
2018-09-26T17:09:14.596Z,15.84
2018-09-26T17:12:18.562Z,15.90
2018-09-26T17:15:22.779Z,15.94
2018-09-26T17:18:26.839Z,15.91
2018-09-26T17:21:30.923Z,15.85
2018-09-26T17:24:34.907Z,15.81
2018-09-26T17:27:38.921Z,15.74
2018-09-26T17:30:42.921Z,15.76
2018-09-26T17:33:46.863Z,15.70
2018-09-26T17:36:50.836Z,15.74
2018-09-26T17:39:54.809Z,15.73
2018-09-26T17:42:58.771Z,15.70
2018-09-26T17:46:03.079Z,15.66
2018-09-26T17:49:07.078Z,15.67
2018-09-26T17:52:11.327Z,15.65
2018-09-26T17:55:15.388Z,15.67
2018-09-26T17:58:19.372Z,15.65
2018-09-26T18:01:23.437Z,15.63
2018-09-26T18:04:27.560Z,15.65
2018-09-26T18:07:31.499Z,15.59
2018-09-26T18:10:35.432Z,15.66
2018-09-26T18:13:39.359Z,15.60
2018-09-26T18:16:43.679Z,15.61
2018-09-26T18:19:47.651Z,15.58
2018-09-26T18:22:51.698Z,15.57
2018-09-26T18:25:55.727Z,15.59
2018-09-26T18:28:59.698Z,15.59
2018-09-26T18:32:03.643Z,15.54
2018-09-26T18:35:07.827Z,15.57
2018-09-26T18:38:11.775Z,15.60
2018-09-26T18:41:15.945Z,15.60
2018-09-26T18:44:20.242Z,15.74
2018-09-26T18:47:24.228Z,15.73
2018-09-26T18:50:28.185Z,15.73
2018-09-26T18:53:32.149Z,15.66
2018-09-26T18:56:36.343Z,15.69
2018-09-26T18:59:40.291Z,15.72
2018-09-26T19:02:44.220Z,15.67
2018-09-26T19:05:48.198Z,15.67
2018-09-26T19:08:52.166Z,15.63
2018-09-26T19:11:56.280Z,15.64
2018-09-26T19:15:00.442Z,15.64
2018-09-26T19:18:04.772Z,15.72
2018-09-26T19:21:09.073Z,15.68
2018-09-26T19:24:13.191Z,15.68
2018-09-26T19:27:17.136Z,15.69
2018-09-26T19:30:21.248Z,15.66
2018-09-26T19:33:25.177Z,15.63
2018-09-26T19:36:29.232Z,15.68
2018-09-26T19:39:33.253Z,15.73
2018-09-26T19:42:37.228Z,15.69
2018-09-26T19:45:41.439Z,15.68
2018-09-26T19:48:45.555Z,15.76
2018-09-26T19:51:49.483Z,15.73
2018-09-26T19:54:53.402Z,15.82
2018-09-26T19:57:57.326Z,15.81
2018-09-26T20:01:01.281Z,15.81
2018-09-26T20:04:05.406Z,15.79
2018-09-26T20:07:09.358Z,15.80
2018-09-26T20:10:13.489Z,15.78
2018-09-26T20:13:17.610Z,15.77
2018-09-26T20:16:21.933Z,15.80
2018-09-26T20:19:26.168Z,15.83
2018-09-26T20:22:30.090Z,15.80
2018-09-26T20:25:34.057Z,15.76
2018-09-26T20:28:37.996Z,15.75
2018-09-26T20:31:42.116Z,15.78
2018-09-26T20:34:46.046Z,15.84
2018-09-26T20:37:50.142Z,15.91
2018-09-26T20:40:54.081Z,15.81
2018-09-26T20:43:58.027Z,15.76
2018-09-26T20:47:01.963Z,15.82
2018-09-26T20:50:05.986Z,15.77
2018-09-26T20:53:09.950Z,15.74
2018-09-26T20:56:13.899Z,15.68
2018-09-26T20:59:17.830Z,15.66
2018-09-26T21:02:21.767Z,15.68
2018-09-26T21:05:25.691Z,15.61
2018-09-26T21:08:29.606Z,15.57
2018-09-26T21:11:33.583Z,15.60
2018-09-26T21:14:37.867Z,15.64
2018-09-26T21:17:41.958Z,15.60
2018-09-26T21:20:45.929Z,15.59
2018-09-26T21:23:49.873Z,15.55
2018-09-26T21:26:53.816Z,15.54
2018-09-26T21:29:58.077Z,15.58
2018-09-26T21:33:02.028Z,15.56
2018-09-26T21:36:05.946Z,15.57
2018-09-26T21:39:10.158Z,15.51
2018-09-26T21:42:14.799Z,15.48
2018-09-26T21:45:18.730Z,15.53
2018-09-26T21:48:22.666Z,15.52
2018-09-26T21:51:26.585Z,15.56
2018-09-26T21:54:30.568Z,15.50
2018-09-26T21:57:35.021Z,15.46
2018-09-26T22:00:43.368Z,15.51
2018-09-26T22:03:47.307Z,15.47
2018-09-26T22:06:51.291Z,15.47
2018-09-26T22:09:55.211Z,15.51
2018-09-26T22:12:59.166Z,15.49
2018-09-26T22:16:03.086Z,15.46
2018-09-26T22:19:07.023Z,15.47
2018-09-26T22:22:10.998Z,15.47
2018-09-26T22:25:15.262Z,15.50
2018-09-26T22:28:19.506Z,15.45
2018-09-26T22:31:24.065Z,15.45
2018-09-26T22:34:28.131Z,15.43
2018-09-26T22:37:32.048Z,15.37
2018-09-26T22:40:36.104Z,15.33
2018-09-26T22:43:40.030Z,15.35
2018-09-26T22:46:43.963Z,15.34
2018-09-26T22:49:47.894Z,15.32
2018-09-26T22:52:51.831Z,15.34
2018-09-26T22:55:55.762Z,15.33
2018-09-26T22:58:59.700Z,15.33
2018-09-26T23:02:03.632Z,15.31
2018-09-26T23:05:07.811Z,15.32
2018-09-26T23:08:11.742Z,15.42
2018-09-26T23:11:15.669Z,15.37
2018-09-26T23:14:19.599Z,15.35
2018-09-26T23:17:23.528Z,15.31
2018-09-26T23:20:27.792Z,15.33
2018-09-26T23:23:31.807Z,15.38
2018-09-26T23:26:35.741Z,15.35
2018-09-26T23:29:39.691Z,15.36
2018-09-26T23:32:43.637Z,15.33
2018-09-26T23:35:47.743Z,15.32
2018-09-26T23:38:51.692Z,15.30
2018-09-26T23:41:55.831Z,15.35
2018-09-26T23:44:59.771Z,15.33
2018-09-26T23:48:03.769Z,15.36
2018-09-26T23:51:07.866Z,15.41
2018-09-26T23:54:11.934Z,15.37
2018-09-26T23:57:15.892Z,15.36
